createdAt,value
2023-05-13T00:00:51.592Z,936.73
2023-05-13T00:01:51.590Z,936.71
2023-05-13T00:02:51.646Z,936.74
2023-05-13T00:03:51.559Z,936.72
2023-05-13T00:04:51.548Z,936.71
2023-05-13T00:05:51.554Z,936.75
2023-05-13T00:06:51.532Z,936.72
2023-05-13T00:07:51.488Z,936.73
2023-05-13T00:08:51.506Z,936.71
2023-05-13T00:09:51.516Z,936.70
2023-05-13T00:10:51.464Z,936.74
2023-05-13T00:11:51.456Z,936.69
2023-05-13T00:12:51.510Z,936.74
2023-05-13T00:13:51.454Z,936.71
2023-05-13T00:14:51.418Z,936.74
2023-05-13T00:15:51.442Z,936.68
2023-05-13T00:16:56.375Z,936.68
2023-05-13T00:17:51.461Z,936.74
2023-05-13T00:18:51.443Z,936.68
2023-05-13T00:19:51.392Z,936.72
2023-05-13T00:20:51.366Z,936.73
2023-05-13T00:21:51.359Z,936.71
2023-05-13T00:22:51.390Z,936.78
2023-05-13T00:23:51.327Z,936.78
2023-05-13T00:24:51.328Z,936.78
2023-05-13T00:25:51.376Z,936.76
2023-05-13T00:26:51.324Z,936.76
2023-05-13T00:27:51.294Z,936.74
2023-05-13T00:28:51.306Z,936.74
2023-05-13T00:29:51.296Z,936.75
2023-05-13T00:30:51.254Z,936.73
2023-05-13T00:31:51.262Z,936.74
2023-05-13T00:32:51.303Z,936.73
2023-05-13T00:33:51.267Z,936.73
2023-05-13T00:34:51.247Z,936.70
2023-05-13T00:35:51.241Z,936.68
2023-05-13T00:36:51.203Z,936.67
2023-05-13T00:37:51.178Z,936.71
2023-05-13T00:38:51.174Z,936.69
2023-05-13T00:39:51.221Z,936.73
2023-05-13T00:40:51.212Z,936.70
2023-05-13T00:41:51.341Z,936.63
2023-05-13T00:42:51.128Z,936.67
2023-05-13T00:43:51.146Z,936.67
2023-05-13T00:44:51.140Z,936.66
2023-05-13T00:45:51.141Z,936.69
2023-05-13T00:47:01.993Z,936.67
2023-05-13T00:47:51.153Z,936.68
2023-05-13T00:48:51.070Z,936.70
2023-05-13T00:49:51.083Z,936.70
2023-05-13T00:50:51.088Z,936.64
2023-05-13T00:51:51.055Z,936.67
2023-05-13T00:52:51.047Z,936.66
2023-05-13T00:53:51.050Z,936.69
2023-05-13T00:54:51.210Z,936.65
2023-05-13T00:55:51.035Z,936.65
2023-05-13T00:56:50.993Z,936.66
2023-05-13T00:57:51.046Z,936.64
2023-05-13T00:58:50.968Z,936.67
2023-05-13T00:59:50.943Z,936.67
2023-05-13T01:00:50.961Z,936.70
2023-05-13T01:01:50.957Z,936.72
2023-05-13T01:02:50.979Z,936.73
2023-05-13T01:03:50.906Z,936.69
2023-05-13T01:04:50.900Z,936.80
2023-05-13T01:05:50.912Z,936.77
2023-05-13T01:06:50.961Z,936.75
2023-05-13T01:07:50.869Z,936.78
2023-05-13T01:08:50.929Z,936.76
2023-05-13T01:09:50.841Z,936.75
2023-05-13T01:10:50.825Z,936.76
2023-05-13T01:11:50.898Z,936.76
2023-05-13T01:12:50.885Z,936.76
2023-05-13T01:13:50.819Z,936.79
2023-05-13T01:14:50.833Z,936.81
2023-05-13T01:15:50.771Z,936.79
2023-05-13T01:16:50.831Z,936.78
2023-05-13T01:17:50.819Z,936.79
2023-05-13T01:18:50.800Z,936.79
2023-05-13T01:19:50.767Z,936.82
2023-05-13T01:20:50.747Z,936.79
2023-05-13T01:21:50.720Z,936.76
2023-05-13T01:22:50.706Z,936.75
2023-05-13T01:23:50.693Z,936.77
2023-05-13T01:24:50.696Z,936.77
2023-05-13T01:25:50.694Z,936.80
2023-05-13T01:26:50.678Z,936.77
2023-05-13T01:27:50.670Z,936.80
2023-05-13T01:28:50.713Z,936.83
2023-05-13T01:29:50.654Z,936.83
2023-05-13T01:30:50.655Z,936.81
2023-05-13T01:31:50.629Z,936.85
2023-05-13T01:32:50.708Z,936.86
2023-05-13T01:33:50.608Z,936.83
2023-05-13T01:34:50.719Z,936.82
2023-05-13T01:35:50.588Z,936.96
2023-05-13T01:36:50.607Z,936.88
2023-05-13T01:37:50.627Z,936.93
2023-05-13T01:38:50.546Z,936.94
2023-05-13T01:39:50.596Z,936.90
2023-05-13T01:40:50.567Z,936.91
2023-05-13T01:41:50.496Z,936.90
2023-05-13T01:42:50.518Z,936.89
2023-05-13T01:43:50.483Z,936.87
2023-05-13T01:44:50.497Z,936.84
2023-05-13T01:45:50.519Z,936.79
2023-05-13T01:46:50.753Z,936.82
2023-05-13T01:47:50.630Z,936.84
2023-05-13T01:48:50.430Z,936.83
2023-05-13T01:49:50.432Z,936.83
2023-05-13T01:50:50.435Z,936.87
2023-05-13T01:51:50.387Z,936.84
2023-05-13T01:52:50.378Z,936.80
2023-05-13T01:53:50.430Z,936.82
2023-05-13T01:54:50.371Z,936.85
2023-05-13T01:55:50.379Z,936.83
2023-05-13T01:56:50.374Z,936.86
2023-05-13T01:57:50.360Z,936.85
2023-05-13T01:58:50.440Z,936.87
2023-05-13T01:59:50.336Z,936.89
2023-05-13T02:00:50.327Z,936.87
2023-05-13T02:01:50.387Z,936.89
2023-05-13T02:02:50.370Z,936.89
2023-05-13T02:03:50.426Z,936.89
2023-05-13T02:04:50.252Z,936.90
2023-05-13T02:05:50.254Z,936.93
2023-05-13T02:06:50.264Z,936.91
2023-05-13T02:07:50.254Z,936.89
2023-05-13T02:08:50.306Z,936.86
2023-05-13T02:09:50.269Z,936.86
2023-05-13T02:10:50.264Z,936.85
2023-05-13T02:11:50.188Z,936.89
2023-05-13T02:12:50.187Z,936.84
2023-05-13T02:13:50.864Z,936.86
2023-05-13T02:14:50.158Z,936.86
2023-05-13T02:15:50.132Z,936.88
2023-05-13T02:16:55.093Z,936.90
2023-05-13T02:17:50.186Z,936.91
2023-05-13T02:18:50.221Z,936.85
2023-05-13T02:19:50.094Z,936.90
2023-05-13T02:20:50.190Z,936.88
2023-05-13T02:21:50.118Z,936.87
2023-05-13T02:22:50.117Z,936.89
2023-05-13T02:23:50.056Z,936.94
2023-05-13T02:24:50.097Z,936.87
2023-05-13T02:25:50.037Z,936.90
2023-05-13T02:26:50.061Z,936.93
2023-05-13T02:27:50.042Z,936.86
2023-05-13T02:28:50.122Z,936.87
2023-05-13T02:29:50.008Z,936.87
2023-05-13T02:30:50.083Z,936.89
2023-05-13T02:31:50.179Z,936.88
2023-05-13T02:32:50.026Z,936.86
2023-05-13T02:33:49.976Z,936.86
2023-05-13T02:34:49.998Z,936.85
2023-05-13T02:35:49.983Z,936.91
2023-05-13T02:36:49.926Z,936.95
2023-05-13T02:37:49.985Z,936.97
2023-05-13T02:38:49.904Z,937.00
2023-05-13T02:39:49.930Z,936.99
2023-05-13T02:40:49.894Z,936.98
2023-05-13T02:41:49.864Z,937.00
2023-05-13T02:42:49.864Z,937.03
2023-05-13T02:43:49.938Z,937.00
2023-05-13T02:44:49.886Z,936.99
2023-05-13T02:45:49.921Z,936.97
2023-05-13T02:47:04.466Z,936.99
2023-05-13T02:47:49.856Z,936.95
2023-05-13T02:48:49.857Z,937.01
2023-05-13T02:49:49.814Z,937.02
2023-05-13T02:50:50.384Z,936.94
2023-05-13T02:51:49.760Z,937.00
2023-05-13T02:52:49.797Z,936.95
2023-05-13T02:53:50.389Z,936.96
2023-05-13T02:54:49.801Z,936.99
2023-05-13T02:55:49.723Z,936.93
2023-05-13T02:56:49.712Z,936.95
2023-05-13T02:57:49.733Z,936.94
2023-05-13T02:58:49.725Z,936.97
2023-05-13T02:59:49.703Z,936.97
2023-05-13T03:00:49.735Z,936.97
2023-05-13T03:01:49.723Z,936.96
2023-05-13T03:02:49.781Z,936.96
2023-05-13T03:03:49.649Z,936.97
2023-05-13T03:04:49.654Z,936.95
2023-05-13T03:05:49.634Z,937.02
2023-05-13T03:06:49.629Z,936.99
2023-05-13T03:07:49.645Z,936.98
2023-05-13T03:08:49.647Z,937.01
2023-05-13T03:09:49.575Z,936.97
2023-05-13T03:10:49.582Z,937.02
2023-05-13T03:11:49.547Z,936.99
2023-05-13T03:12:49.550Z,936.95
2023-05-13T03:13:49.580Z,936.99
2023-05-13T03:14:49.548Z,936.97
2023-05-13T03:15:49.575Z,936.95
2023-05-13T03:16:54.519Z,936.94
2023-05-13T03:17:49.519Z,936.94
2023-05-13T03:18:57.524Z,936.97
2023-05-13T03:19:49.495Z,937.01
2023-05-13T03:20:49.520Z,937.02
2023-05-13T03:21:49.509Z,937.03
2023-05-13T03:22:49.446Z,937.04
2023-05-13T03:23:49.455Z,937.04
2023-05-13T03:24:49.414Z,937.03
2023-05-13T03:25:49.406Z,937.08
2023-05-13T03:26:49.459Z,937.05
2023-05-13T03:27:49.379Z,937.06
2023-05-13T03:28:49.410Z,937.06
2023-05-13T03:29:49.402Z,937.10
2023-05-13T03:30:49.369Z,937.11
2023-05-13T03:31:49.439Z,937.12
2023-05-13T03:32:49.487Z,937.09
2023-05-13T03:33:49.330Z,937.11
2023-05-13T03:34:49.351Z,937.10
2023-05-13T03:35:49.302Z,937.13
2023-05-13T03:36:49.328Z,937.15
2023-05-13T03:37:49.291Z,937.12
2023-05-13T03:38:49.465Z,937.10
2023-05-13T03:39:49.340Z,937.14
2023-05-13T03:40:49.272Z,937.14
2023-05-13T03:41:49.240Z,937.16
2023-05-13T03:42:49.256Z,937.14
2023-05-13T03:43:49.239Z,937.14
2023-05-13T03:44:49.207Z,937.14
2023-05-13T03:45:49.192Z,937.18
2023-05-13T03:46:49.295Z,937.13
2023-05-13T03:47:49.180Z,937.18
2023-05-13T03:48:49.206Z,937.16
2023-05-13T03:49:49.146Z,937.19
2023-05-13T03:50:49.140Z,937.17
2023-05-13T03:51:49.184Z,937.18
2023-05-13T03:52:49.167Z,937.19
2023-05-13T03:53:49.150Z,937.19
2023-05-13T03:54:49.149Z,937.26
2023-05-13T03:55:49.100Z,937.22
2023-05-13T03:56:49.090Z,937.24
2023-05-13T03:57:49.096Z,937.24
2023-05-13T03:58:49.052Z,937.24
2023-05-13T03:59:49.077Z,937.23
2023-05-13T04:00:49.112Z,937.25
2023-05-13T04:01:49.153Z,937.24
2023-05-13T04:02:49.176Z,937.26
2023-05-13T04:03:49.125Z,937.26
2023-05-13T04:04:49.051Z,937.24
2023-05-13T04:05:49.087Z,937.22
2023-05-13T04:06:49.053Z,937.28
2023-05-13T04:07:48.990Z,937.29
2023-05-13T04:08:48.997Z,937.27
2023-05-13T04:09:48.985Z,937.29
2023-05-13T04:10:49.016Z,937.32
2023-05-13T04:11:48.950Z,937.29
2023-05-13T04:12:48.947Z,937.31
2023-05-13T04:13:48.952Z,937.31
2023-05-13T04:14:48.953Z,937.30
2023-05-13T04:15:48.911Z,937.24
2023-05-13T04:16:49.034Z,937.33
2023-05-13T04:17:48.918Z,937.31
2023-05-13T04:18:49.035Z,937.37
2023-05-13T04:19:48.863Z,937.33
2023-05-13T04:20:48.867Z,937.32
2023-05-13T04:21:48.836Z,937.35
2023-05-13T04:22:48.839Z,937.32
2023-05-13T04:23:48.811Z,937.29
2023-05-13T04:24:48.809Z,937.27
2023-05-13T04:25:48.817Z,937.32
2023-05-13T04:26:48.811Z,937.28
2023-05-13T04:27:48.790Z,937.27
2023-05-13T04:28:48.753Z,937.27
2023-05-13T04:29:48.799Z,937.31
2023-05-13T04:30:48.737Z,937.34
2023-05-13T04:31:48.811Z,937.31
2023-05-13T04:32:48.790Z,937.35
2023-05-13T04:33:48.740Z,937.36
2023-05-13T04:34:49.453Z,937.33
2023-05-13T04:35:48.727Z,937.35
2023-05-13T04:36:48.663Z,937.39
2023-05-13T04:37:48.724Z,937.36
2023-05-13T04:38:48.649Z,937.32
2023-05-13T04:39:48.680Z,937.38
2023-05-13T04:40:48.654Z,937.37
2023-05-13T04:41:48.605Z,937.37
2023-05-13T04:42:48.590Z,937.37
2023-05-13T04:43:48.606Z,937.37
2023-05-13T04:44:48.581Z,937.41
2023-05-13T04:45:48.583Z,937.38
2023-05-13T04:46:48.822Z,937.45
2023-05-13T04:47:48.574Z,937.40
2023-05-13T04:48:48.780Z,937.44
2023-05-13T04:49:48.544Z,937.41
2023-05-13T04:50:48.583Z,937.44
2023-05-13T04:51:48.505Z,937.47
2023-05-13T04:52:48.536Z,937.43
2023-05-13T04:53:48.570Z,937.46
2023-05-13T04:54:48.509Z,937.48
2023-05-13T04:55:48.504Z,937.45
2023-05-13T04:56:48.520Z,937.44
2023-05-13T04:57:48.488Z,937.44
2023-05-13T04:58:48.426Z,937.48
2023-05-13T04:59:48.416Z,937.46
2023-05-13T05:00:48.438Z,937.48
2023-05-13T05:01:48.433Z,937.50
2023-05-13T05:02:48.539Z,937.51
2023-05-13T05:03:48.396Z,937.50
2023-05-13T05:04:48.409Z,937.52
2023-05-13T05:05:48.376Z,937.51
2023-05-13T05:06:48.348Z,937.51
2023-05-13T05:07:48.361Z,937.55
2023-05-13T05:08:48.330Z,937.55
2023-05-13T05:09:48.380Z,937.55
2023-05-13T05:10:48.302Z,937.57
2023-05-13T05:11:48.316Z,937.58
2023-05-13T05:12:48.327Z,937.56
2023-05-13T05:13:48.297Z,937.55
2023-05-13T05:14:48.259Z,937.52
2023-05-13T05:15:48.370Z,937.57
2023-05-13T05:16:48.456Z,937.54
2023-05-13T05:17:48.422Z,937.54
2023-05-13T05:18:48.395Z,937.63
2023-05-13T05:19:48.244Z,937.59
2023-05-13T05:20:48.201Z,937.61
2023-05-13T05:21:48.250Z,937.60
2023-05-13T05:22:48.189Z,937.66
2023-05-13T05:23:48.169Z,937.68
2023-05-13T05:24:48.170Z,937.68
2023-05-13T05:25:49.811Z,937.65
2023-05-13T05:26:49.190Z,937.67
2023-05-13T05:27:48.139Z,937.66
2023-05-13T05:28:48.237Z,937.69
2023-05-13T05:29:48.185Z,937.73
2023-05-13T05:30:48.098Z,937.69
2023-05-13T05:31:48.146Z,937.72
2023-05-13T05:32:48.168Z,937.69
2023-05-13T05:33:48.129Z,937.74
2023-05-13T05:34:48.055Z,937.73
2023-05-13T05:35:48.039Z,937.71
2023-05-13T05:36:48.053Z,937.72
2023-05-13T05:37:48.013Z,937.71
2023-05-13T05:38:48.016Z,937.73
2023-05-13T05:39:48.063Z,937.70
2023-05-13T05:40:48.012Z,937.74
2023-05-13T05:41:47.983Z,937.74
2023-05-13T05:42:48.020Z,937.78
2023-05-13T05:43:47.953Z,937.75
2023-05-13T05:44:48.017Z,937.75
2023-05-13T05:45:47.977Z,937.79
2023-05-13T05:46:48.104Z,937.77
2023-05-13T05:47:47.967Z,937.75
2023-05-13T05:48:48.016Z,937.76
2023-05-13T05:49:47.961Z,937.83
2023-05-13T05:50:47.895Z,937.83
2023-05-13T05:51:47.906Z,937.82
2023-05-13T05:52:47.868Z,937.79
2023-05-13T05:53:47.867Z,937.81
2023-05-13T05:54:47.923Z,937.79
2023-05-13T05:55:47.827Z,937.79
2023-05-13T05:56:47.856Z,937.80
2023-05-13T05:57:47.812Z,937.85
2023-05-13T05:58:47.859Z,937.83
2023-05-13T05:59:47.807Z,937.80
2023-05-13T06:00:47.836Z,937.85
2023-05-13T06:01:47.806Z,937.85
2023-05-13T06:02:47.863Z,937.82
2023-05-13T06:03:47.867Z,937.83
2023-05-13T06:04:47.814Z,937.86
2023-05-13T06:05:47.841Z,937.81
2023-05-13T06:06:47.765Z,937.82
2023-05-13T06:07:47.715Z,937.84
2023-05-13T06:08:47.700Z,937.81
2023-05-13T06:09:47.704Z,937.84
2023-05-13T06:10:47.718Z,937.87
2023-05-13T06:11:47.730Z,937.83
2023-05-13T06:12:47.679Z,937.87
2023-05-13T06:13:47.644Z,937.88
2023-05-13T06:14:47.647Z,937.88
2023-05-13T06:15:47.754Z,937.89
2023-05-13T06:16:53.697Z,937.88
2023-05-13T06:17:47.700Z,937.91
2023-05-13T06:18:47.659Z,937.88
2023-05-13T06:19:47.626Z,937.96
2023-05-13T06:20:47.575Z,937.94
2023-05-13T06:21:47.596Z,937.96
2023-05-13T06:22:47.568Z,937.92
2023-05-13T06:23:47.525Z,937.94
2023-05-13T06:24:47.581Z,938.00
2023-05-13T06:25:47.593Z,937.94
2023-05-13T06:26:47.593Z,937.96
2023-05-13T06:27:47.484Z,937.96
2023-05-13T06:28:47.610Z,937.93
2023-05-13T06:29:47.492Z,937.97
2023-05-13T06:30:47.483Z,937.95
2023-05-13T06:31:47.493Z,937.94
2023-05-13T06:32:57.790Z,937.96
2023-05-13T06:33:48.504Z,937.93
2023-05-13T06:34:47.476Z,937.92
2023-05-13T06:35:47.415Z,937.94
2023-05-13T06:36:47.405Z,937.95
2023-05-13T06:37:47.548Z,937.90
2023-05-13T06:38:47.391Z,937.94
2023-05-13T06:39:47.437Z,937.92
2023-05-13T06:40:47.470Z,937.91
2023-05-13T06:41:47.345Z,937.91
2023-05-13T06:42:47.351Z,937.98
2023-05-13T06:43:47.376Z,937.99
2023-05-13T06:44:47.351Z,937.95
2023-05-13T06:45:47.329Z,937.98
2023-05-13T06:46:47.434Z,937.94
2023-05-13T06:47:47.336Z,937.96
2023-05-13T06:48:47.311Z,937.97
2023-05-13T06:49:47.301Z,937.98
2023-05-13T06:50:47.270Z,938.01
2023-05-13T06:51:47.320Z,938.02
2023-05-13T06:52:47.225Z,938.01
2023-05-13T06:53:47.235Z,938.03
2023-05-13T06:54:47.208Z,938.00
2023-05-13T06:55:47.252Z,937.99
2023-05-13T06:56:47.258Z,937.97
2023-05-13T06:57:47.311Z,937.99
2023-05-13T06:58:47.519Z,938.00
2023-05-13T06:59:47.162Z,938.00
2023-05-13T07:00:47.250Z,937.95
2023-05-13T07:01:47.231Z,937.93
2023-05-13T07:02:47.280Z,937.93
2023-05-13T07:03:47.259Z,937.92
2023-05-13T07:04:47.154Z,937.99
2023-05-13T07:05:47.094Z,937.96
2023-05-13T07:06:47.088Z,937.96
2023-05-13T07:07:47.121Z,937.93
2023-05-13T07:08:47.117Z,937.98
2023-05-13T07:09:47.114Z,937.95
2023-05-13T07:10:47.074Z,937.95
2023-05-13T07:11:47.104Z,938.01
2023-05-13T07:12:47.130Z,938.01
2023-05-13T07:13:47.077Z,938.00
2023-05-13T07:14:47.021Z,938.04
2023-05-13T07:15:47.042Z,938.05
2023-05-13T07:16:51.669Z,938.05
2023-05-13T07:17:47.106Z,938.01
2023-05-13T07:18:46.988Z,938.06
2023-05-13T07:19:46.981Z,938.05
2023-05-13T07:20:46.962Z,938.11
2023-05-13T07:21:47.480Z,938.07
2023-05-13T07:22:47.025Z,938.09
2023-05-13T07:23:47.088Z,938.08
2023-05-13T07:24:46.895Z,938.06
2023-05-13T07:25:46.972Z,938.08
2023-05-13T07:26:46.912Z,938.08
2023-05-13T07:27:46.880Z,938.09
2023-05-13T07:28:46.904Z,938.06
2023-05-13T07:29:46.904Z,938.08
2023-05-13T07:30:46.860Z,938.10
2023-05-13T07:31:46.814Z,938.10
2023-05-13T07:32:46.889Z,938.13
2023-05-13T07:33:46.878Z,938.09
2023-05-13T07:34:47.011Z,938.07
2023-05-13T07:35:46.842Z,938.12
2023-05-13T07:36:46.808Z,938.10
2023-05-13T07:37:46.840Z,938.09
2023-05-13T07:38:46.794Z,938.10
2023-05-13T07:39:46.785Z,938.13
2023-05-13T07:40:46.743Z,938.13
2023-05-13T07:41:46.722Z,938.18
2023-05-13T07:42:46.823Z,938.16
2023-05-13T07:43:46.751Z,938.12
2023-05-13T07:44:46.745Z,938.15
2023-05-13T07:45:46.751Z,938.15
2023-05-13T07:46:51.688Z,938.15
2023-05-13T07:47:46.742Z,938.16
2023-05-13T07:48:46.656Z,938.19
2023-05-13T07:49:46.646Z,938.16
2023-05-13T07:50:46.638Z,938.20
2023-05-13T07:51:46.596Z,938.17
2023-05-13T07:52:46.625Z,938.22
2023-05-13T07:53:46.689Z,938.21
2023-05-13T07:54:46.561Z,938.19
2023-05-13T07:55:46.816Z,938.17
2023-05-13T07:56:46.594Z,938.22
2023-05-13T07:57:46.577Z,938.19
2023-05-13T07:58:46.550Z,938.20
2023-05-13T07:59:46.705Z,938.17
2023-05-13T08:00:46.526Z,938.13
2023-05-13T08:01:46.504Z,938.16
2023-05-13T08:02:46.596Z,938.16
2023-05-13T08:03:46.812Z,938.21
2023-05-13T08:04:46.527Z,938.15
2023-05-13T08:05:46.527Z,938.15
2023-05-13T08:06:46.613Z,938.16
2023-05-13T08:07:46.730Z,938.15
2023-05-13T08:08:46.475Z,938.12
2023-05-13T08:09:46.454Z,938.17
2023-05-13T08:10:46.426Z,938.15
2023-05-13T08:11:46.418Z,938.16
2023-05-13T08:12:46.388Z,938.12
2023-05-13T08:13:46.447Z,938.08
2023-05-13T08:14:48.238Z,938.09
2023-05-13T08:15:46.561Z,938.13
2023-05-13T08:16:46.535Z,938.07
2023-05-13T08:17:46.403Z,938.13
2023-05-13T08:18:46.404Z,938.10
2023-05-13T08:21:43.648Z,938.10
2023-05-13T08:22:43.651Z,938.12
2023-05-13T08:23:45.986Z,938.12
2023-05-13T08:24:43.574Z,938.14
2023-05-13T08:25:43.552Z,938.15
2023-05-13T08:26:43.660Z,938.18
2023-05-13T08:27:43.641Z,938.16
2023-05-13T08:28:43.529Z,938.22
2023-05-13T08:29:43.510Z,938.19
2023-05-13T08:30:43.520Z,938.20
2023-05-13T08:31:43.528Z,938.17
2023-05-13T08:32:43.621Z,938.23
2023-05-13T08:33:43.458Z,938.24
2023-05-13T08:34:43.494Z,938.24
2023-05-13T08:35:44.910Z,938.24
2023-05-13T08:36:43.445Z,938.20
2023-05-13T08:37:43.436Z,938.23
2023-05-13T08:38:43.418Z,938.22
2023-05-13T08:39:43.508Z,938.19
2023-05-13T08:40:43.420Z,938.24
2023-05-13T08:41:43.397Z,938.15
2023-05-13T08:42:43.375Z,938.23
2023-05-13T08:43:43.571Z,938.27
2023-05-13T08:44:43.344Z,938.26
2023-05-13T08:45:43.377Z,938.29
2023-05-13T08:46:48.080Z,938.25
2023-05-13T08:47:43.363Z,938.27
2023-05-13T08:48:43.338Z,938.30
2023-05-13T08:49:43.385Z,938.29
2023-05-13T08:50:43.298Z,938.29
2023-05-13T08:51:43.268Z,938.27
2023-05-13T08:52:43.266Z,938.33
2023-05-13T08:53:43.257Z,938.36
2023-05-13T08:54:43.257Z,938.32
2023-05-13T08:55:43.276Z,938.35
2023-05-13T08:56:43.236Z,938.35
2023-05-13T08:57:43.199Z,938.36
2023-05-13T08:58:43.194Z,938.38
2023-05-13T08:59:43.216Z,938.42
2023-05-13T09:00:43.201Z,938.39
2023-05-13T09:01:43.260Z,938.41
2023-05-13T09:02:43.191Z,938.40
2023-05-13T09:03:43.176Z,938.44
2023-05-13T09:04:43.251Z,938.42
2023-05-13T09:05:43.182Z,938.44
2023-05-13T09:06:43.195Z,938.41
2023-05-13T09:07:43.400Z,938.40
2023-05-13T09:08:43.100Z,938.40
2023-05-13T09:09:43.083Z,938.41
2023-05-13T09:10:43.125Z,938.36
2023-05-13T09:11:44.663Z,938.36
2023-05-13T09:12:43.098Z,938.35
2023-05-13T09:13:43.041Z,938.38
2023-05-13T09:14:43.069Z,938.34
2023-05-13T09:15:43.072Z,938.35
2023-05-13T09:16:44.087Z,938.28
2023-05-13T09:17:43.037Z,938.24
2023-05-13T09:18:43.323Z,938.28
2023-05-13T09:19:43.117Z,938.26
2023-05-13T09:20:43.005Z,938.27
2023-05-13T09:21:43.269Z,938.27
2023-05-13T09:22:43.067Z,938.27
2023-05-13T09:23:42.929Z,938.30
2023-05-13T09:24:42.971Z,938.31
2023-05-13T09:25:42.907Z,938.29
2023-05-13T09:26:42.895Z,938.31
2023-05-13T09:27:42.876Z,938.35
2023-05-13T09:28:42.931Z,938.28
2023-05-13T09:29:42.920Z,938.33
2023-05-13T09:30:46.235Z,938.28
2023-05-13T09:31:42.850Z,938.30
2023-05-13T09:32:43.083Z,938.30
2023-05-13T09:33:42.872Z,938.27
2023-05-13T09:34:42.809Z,938.26
2023-05-13T09:35:43.492Z,938.30
2023-05-13T09:36:42.856Z,938.34
2023-05-13T09:37:43.039Z,938.31
2023-05-13T09:38:42.772Z,938.32
2023-05-13T09:39:42.763Z,938.35
2023-05-13T09:40:42.810Z,938.36
2023-05-13T09:41:42.731Z,938.33
2023-05-13T09:42:42.749Z,938.31
2023-05-13T09:43:42.752Z,938.39
2023-05-13T09:44:42.838Z,938.34
2023-05-13T09:45:42.726Z,938.32
2023-05-13T09:46:42.807Z,938.33
2023-05-13T09:47:42.783Z,938.35
2023-05-13T09:48:42.761Z,938.30
2023-05-13T09:49:42.668Z,938.33
2023-05-13T09:50:42.645Z,938.28
2023-05-13T09:51:42.644Z,938.32
2023-05-13T09:52:42.663Z,938.28
2023-05-13T09:53:42.611Z,938.31
2023-05-13T09:54:42.590Z,938.31
2023-05-13T09:55:42.615Z,938.35
2023-05-13T09:56:42.754Z,938.39
2023-05-13T09:59:00.339Z,938.37
2023-05-13T10:00:00.279Z,938.37
2023-05-13T10:01:00.322Z,938.37
2023-05-13T10:02:00.249Z,938.38
2023-05-13T10:03:00.295Z,938.41
2023-05-13T10:04:00.304Z,938.38
2023-05-13T10:05:00.228Z,938.42
2023-05-13T10:06:02.973Z,938.40
2023-05-13T10:07:00.208Z,938.42
2023-05-13T10:08:00.215Z,938.46
2023-05-13T10:09:00.225Z,938.47
2023-05-13T10:10:00.222Z,938.46
2023-05-13T10:11:00.176Z,938.43
2023-05-13T10:12:00.157Z,938.47
2023-05-13T10:13:00.142Z,938.49
2023-05-13T10:14:00.167Z,938.53
2023-05-13T10:15:00.130Z,938.47
2023-05-13T10:16:11.210Z,938.47
2023-05-13T10:17:00.248Z,938.48
2023-05-13T10:18:00.155Z,938.47
2023-05-13T10:19:00.162Z,938.49
2023-05-13T10:20:00.069Z,938.54
2023-05-13T10:21:00.043Z,938.53
2023-05-13T10:22:00.042Z,938.52
2023-05-13T10:23:00.005Z,938.53
2023-05-13T10:24:00.036Z,938.55
2023-05-13T10:25:00.065Z,938.54
2023-05-13T10:26:00.128Z,938.50
2023-05-13T10:27:00.116Z,938.57
2023-05-13T10:28:00.012Z,938.56
2023-05-13T10:28:59.956Z,938.51
2023-05-13T10:30:02.348Z,938.50
2023-05-13T10:31:00.024Z,938.53
2023-05-13T10:32:00.003Z,938.48
2023-05-13T10:32:59.967Z,938.49
2023-05-13T10:33:59.897Z,938.55
2023-05-13T10:34:59.915Z,938.52
2023-05-13T10:35:59.909Z,938.53
2023-05-13T10:36:59.857Z,938.54
2023-05-13T10:37:59.891Z,938.50
2023-05-13T10:38:59.854Z,938.56
2023-05-13T10:39:59.861Z,938.56
2023-05-13T10:40:59.862Z,938.56
2023-05-13T10:41:59.817Z,938.54
2023-05-13T10:42:59.800Z,938.50
2023-05-13T10:43:59.787Z,938.51
2023-05-13T10:44:59.782Z,938.56
2023-05-13T10:45:59.952Z,938.54
2023-05-13T10:46:59.976Z,938.57
2023-05-13T10:47:59.920Z,938.54
2023-05-13T10:48:59.742Z,938.54
2023-05-13T10:49:59.727Z,938.56
2023-05-13T10:50:59.695Z,938.47
2023-05-13T10:51:59.709Z,938.51
2023-05-13T10:52:59.684Z,938.50
2023-05-13T10:53:59.792Z,938.46
2023-05-13T10:54:59.663Z,938.50
2023-05-13T10:55:59.708Z,938.50
2023-05-13T10:56:59.661Z,938.50
2023-05-13T10:57:59.732Z,938.53
2023-05-13T10:58:59.730Z,938.55
2023-05-13T10:59:59.625Z,938.55
2023-05-13T11:00:59.588Z,938.56
2023-05-13T11:01:59.766Z,938.59
2023-05-13T11:02:59.653Z,938.57
2023-05-13T11:03:59.749Z,938.57
2023-05-13T11:04:59.585Z,938.62
2023-05-13T11:05:59.584Z,938.61
2023-05-13T11:06:59.627Z,938.62
2023-05-13T11:07:59.546Z,938.63
2023-05-13T11:08:59.522Z,938.61
2023-05-13T11:09:59.553Z,938.57
2023-05-13T11:10:59.512Z,938.63
2023-05-13T11:12:00.035Z,938.58
2023-05-13T11:12:59.466Z,938.62
2023-05-13T11:13:59.468Z,938.60
2023-05-13T11:14:59.452Z,938.58
2023-05-13T11:17:09.910Z,938.57
2023-05-13T11:18:09.812Z,938.59
2023-05-13T11:19:09.824Z,938.61
2023-05-13T11:20:09.733Z,938.62
2023-05-13T11:21:09.701Z,938.62
2023-05-13T11:22:09.733Z,938.63
2023-05-13T11:23:09.716Z,938.63
2023-05-13T11:24:09.663Z,938.61
2023-05-13T11:25:09.691Z,938.63
2023-05-13T11:26:12.022Z,938.65
2023-05-13T11:27:09.644Z,938.72
2023-05-13T11:28:09.625Z,938.71
2023-05-13T11:29:09.627Z,938.70
2023-05-13T11:30:09.596Z,938.74
2023-05-13T11:31:09.609Z,938.73
2023-05-13T11:32:09.592Z,938.71
2023-05-13T11:33:09.657Z,938.73
2023-05-13T11:34:09.642Z,938.71
2023-05-13T11:35:09.597Z,938.70
2023-05-13T11:36:09.584Z,938.76
2023-05-13T11:37:09.592Z,938.74
2023-05-13T11:38:09.503Z,938.74
2023-05-13T11:39:09.509Z,938.76
2023-05-13T11:40:09.486Z,938.76
2023-05-13T11:41:09.467Z,938.75
2023-05-13T11:42:09.480Z,938.82
2023-05-13T11:43:09.496Z,938.75
2023-05-13T11:44:09.451Z,938.78
2023-05-13T11:45:09.435Z,938.78
2023-05-13T11:46:09.477Z,938.78
2023-05-13T11:47:09.459Z,938.74
2023-05-13T11:48:09.580Z,938.78
2023-05-13T11:49:09.378Z,938.74
2023-05-13T11:50:09.398Z,938.73
2023-05-13T11:51:09.415Z,938.77
2023-05-13T11:52:09.364Z,938.76
2023-05-13T11:53:09.368Z,938.73
2023-05-13T11:54:09.334Z,938.74
2023-05-13T11:55:09.406Z,938.77
2023-05-13T11:56:09.310Z,938.79
2023-05-13T11:57:09.309Z,938.80
2023-05-13T11:58:09.320Z,938.76
2023-05-13T11:59:09.297Z,938.78
2023-05-13T12:00:09.456Z,938.82
2023-05-13T12:01:09.498Z,938.84
2023-05-13T12:02:09.476Z,938.79
2023-05-13T12:03:09.457Z,938.78
2023-05-13T12:04:09.273Z,938.83
2023-05-13T12:05:09.403Z,938.79
2023-05-13T12:06:09.200Z,938.85
2023-05-13T12:07:09.232Z,938.79
2023-05-13T12:08:09.266Z,938.85
2023-05-13T12:09:09.748Z,938.86
2023-05-13T12:10:09.209Z,938.86
2023-05-13T12:11:09.234Z,938.88
2023-05-13T12:12:09.146Z,938.88
2023-05-13T12:13:09.145Z,938.89
2023-05-13T12:14:09.201Z,938.87
2023-05-13T12:15:09.183Z,938.86
2023-05-13T12:16:09.268Z,938.87
2023-05-13T12:17:09.126Z,938.90
2023-05-13T12:18:09.123Z,938.89
2023-05-13T12:19:09.158Z,938.91
2023-05-13T12:20:09.047Z,938.88
2023-05-13T12:21:09.093Z,938.88
2023-05-13T12:22:09.028Z,938.87
2023-05-13T12:23:09.162Z,938.86
2023-05-13T12:24:09.022Z,938.92
2023-05-13T12:25:09.441Z,938.87
2023-05-13T12:26:09.044Z,938.86
2023-05-13T12:27:11.404Z,938.85
2023-05-13T12:28:08.963Z,938.86
2023-05-13T12:29:08.952Z,938.88
2023-05-13T12:30:08.975Z,938.90
2023-05-13T12:31:08.984Z,938.90
2023-05-13T12:32:09.211Z,938.84
2023-05-13T12:33:08.946Z,938.91